createdAt,value
2023-02-12T00:01:28.915Z,14.25
2023-02-12T00:06:25.033Z,13.25
2023-02-12T00:08:54.625Z,13.82
2023-02-12T00:13:51.667Z,14.27
2023-02-12T00:16:23.616Z,15.18
2023-02-12T00:18:56.571Z,13.10
2023-02-12T00:21:25.713Z,13.70
2023-02-12T00:23:53.857Z,12.60
2023-02-12T00:26:22.239Z,13.35
2023-02-12T00:28:52.496Z,12.52
2023-02-12T00:31:31.605Z,11.98
2023-02-12T00:34:00.206Z,12.75
2023-02-12T00:36:30.991Z,11.98
2023-02-12T00:39:00.513Z,12.32
2023-02-12T00:41:28.899Z,11.85
2023-02-12T00:43:58.339Z,11.40
2023-02-12T00:46:26.675Z,11.38
2023-02-12T00:48:55.431Z,11.15
2023-02-12T00:51:23.401Z,11.27
2023-02-12T00:53:51.768Z,10.77
2023-02-12T00:56:19.397Z,10.77
2023-02-12T00:58:50.043Z,10.43
2023-02-12T01:01:18.816Z,11.50
2023-02-12T01:03:46.397Z,10.07
2023-02-12T01:06:14.166Z,10.38
2023-02-12T01:08:41.736Z,9.77
2023-02-12T01:11:14.338Z,9.95
2023-02-12T01:13:44.562Z,10.52
2023-02-12T01:16:19.188Z,13.25
2023-02-12T01:18:47.819Z,16.27
2023-02-12T01:21:21.504Z,11.23
2023-02-12T01:23:49.836Z,12.43
2023-02-12T01:26:18.797Z,9.23
2023-02-12T01:28:51.804Z,10.55
2023-02-12T01:31:23.761Z,10.32
2023-02-12T01:33:54.640Z,10.65
2023-02-12T01:36:22.924Z,9.63
2023-02-12T01:38:51.284Z,9.80
2023-02-12T01:41:22.580Z,10.20
2023-02-12T01:44:11.202Z,9.60
2023-02-12T01:46:39.944Z,9.75
2023-02-12T01:49:13.007Z,8.88
2023-02-12T01:51:42.763Z,9.15
2023-02-12T01:54:13.403Z,8.57
2023-02-12T01:56:42.671Z,9.38
2023-02-12T01:59:11.737Z,10.23
2023-02-12T02:01:39.402Z,9.43
2023-02-12T02:04:15.186Z,9.38
2023-02-12T02:07:14.038Z,8.65
2023-02-12T02:09:42.586Z,9.25
2023-02-12T02:12:28.939Z,11.27
2023-02-12T02:15:01.437Z,9.07
2023-02-12T02:17:34.039Z,9.15
2023-02-12T02:20:38.969Z,9.00
2023-02-12T02:23:15.565Z,19.13
2023-02-12T02:26:21.226Z,10.70
2023-02-12T02:29:12.092Z,12.93
2023-02-12T02:31:47.335Z,9.35
2023-02-12T02:34:27.578Z,10.02
2023-02-12T02:37:13.912Z,10.23
2023-02-12T02:39:52.633Z,10.70
2023-02-12T02:42:26.880Z,11.35
2023-02-12T02:45:03.478Z,8.70
2023-02-12T02:47:37.921Z,9.98
2023-02-12T02:50:14.108Z,10.70
2023-02-12T02:52:53.766Z,9.05
2023-02-12T02:55:25.759Z,9.82
2023-02-12T02:58:01.491Z,9.68
2023-02-12T03:00:35.011Z,10.68
2023-02-12T03:03:09.746Z,10.38
2023-02-12T03:05:43.321Z,10.18
2023-02-12T03:08:26.012Z,10.07
2023-02-12T03:11:10.318Z,9.70
2023-02-12T03:13:43.708Z,9.98
2023-02-12T03:16:20.994Z,10.57
2023-02-12T03:19:14.228Z,8.88
2023-02-12T03:22:06.368Z,9.25
2023-02-12T03:24:43.258Z,10.73
2023-02-12T03:27:18.089Z,10.05
2023-02-12T03:29:46.810Z,10.27
2023-02-12T03:32:33.968Z,9.32
2023-02-12T03:35:29.130Z,10.05
2023-02-12T03:38:23.300Z,10.98
2023-02-12T03:40:59.229Z,10.63
2023-02-12T03:43:37.806Z,10.30
2023-02-12T03:46:35.598Z,12.17
2023-02-12T03:49:21.553Z,10.65
2023-02-12T03:51:49.721Z,12.77
2023-02-12T03:54:22.232Z,11.48
2023-02-12T03:56:57.006Z,12.18
2023-02-12T03:59:29.276Z,11.55
2023-02-12T04:01:59.742Z,11.75
2023-02-12T04:04:28.563Z,11.82
2023-02-12T04:06:57.287Z,11.45
2023-02-12T04:09:27.635Z,12.50
2023-02-12T04:12:22.676Z,13.65
2023-02-12T04:15:00.147Z,11.88
2023-02-12T04:17:56.928Z,11.63
2023-02-12T04:20:44.790Z,12.18
2023-02-12T04:23:12.649Z,12.23
2023-02-12T04:26:04.678Z,13.35
2023-02-12T04:28:39.153Z,12.85
2023-02-12T04:31:18.028Z,13.60
2023-02-12T04:36:29.131Z,12.48
2023-02-12T04:39:04.954Z,13.20
2023-02-12T04:41:33.222Z,13.52
2023-02-12T04:44:17.353Z,13.73
2023-02-12T04:46:45.062Z,13.43
2023-02-12T04:49:17.752Z,14.23
2023-02-12T04:51:46.512Z,13.55
2023-02-12T04:54:17.216Z,13.80
2023-02-12T04:56:46.099Z,15.02
2023-02-12T04:59:13.810Z,15.03
2023-02-12T05:01:43.238Z,13.55
2023-02-12T05:04:12.840Z,14.85
2023-02-12T05:06:42.142Z,13.85
2023-02-12T05:09:13.497Z,14.60
2023-02-12T05:11:41.154Z,16.13
2023-02-12T05:14:08.628Z,14.38
2023-02-12T05:16:36.356Z,14.93
2023-02-12T05:19:04.152Z,13.88
2023-02-12T05:21:32.899Z,15.23
2023-02-12T05:24:02.392Z,15.30
2023-02-12T05:26:31.521Z,14.65
2023-02-12T05:28:59.288Z,14.88
2023-02-12T05:31:27.312Z,14.38
2023-02-12T05:33:55.090Z,14.38
2023-02-12T05:36:24.368Z,16.42
2023-02-12T05:38:53.709Z,14.43
2023-02-12T05:41:24.258Z,14.70
2023-02-12T05:43:52.582Z,15.35
2023-02-12T05:46:21.652Z,14.50
2023-02-12T05:48:49.346Z,15.68
2023-02-12T05:51:23.391Z,13.77
2023-02-12T05:53:53.386Z,14.95
2023-02-12T05:56:23.790Z,15.32
2023-02-12T05:59:00.492Z,15.55
2023-02-12T06:01:31.219Z,15.13
2023-02-12T06:04:00.454Z,15.60
2023-02-12T06:06:31.327Z,14.77
2023-02-12T06:09:00.048Z,14.77
2023-02-12T06:11:28.208Z,16.03
2023-02-12T06:13:55.808Z,15.57
2023-02-12T06:16:26.360Z,16.52
2023-02-12T06:18:55.563Z,16.75
2023-02-12T06:21:26.212Z,19.15
2023-02-12T06:23:55.236Z,18.23
2023-02-12T06:26:27.452Z,17.63
2023-02-12T06:28:55.626Z,18.17
2023-02-12T06:31:32.943Z,18.75
2023-02-12T06:34:03.950Z,19.20
2023-02-12T06:36:32.056Z,20.50
2023-02-12T06:39:02.359Z,20.90
2023-02-12T06:41:30.043Z,21.65
2023-02-12T06:43:58.942Z,20.15
2023-02-12T06:46:26.873Z,20.67
2023-02-12T06:48:56.154Z,19.92
2023-02-12T06:51:24.526Z,17.27
2023-02-12T06:53:53.569Z,20.30
2023-02-12T06:56:22.796Z,17.83
2023-02-12T07:01:31.153Z,17.48
2023-02-12T07:04:02.938Z,18.17
2023-02-12T07:06:33.549Z,17.67
2023-02-12T07:09:02.101Z,17.75
2023-02-12T07:11:35.478Z,17.60
2023-02-12T07:14:06.394Z,18.63
2023-02-12T07:16:34.384Z,18.40
2023-02-12T07:19:02.684Z,16.88
2023-02-12T07:21:32.117Z,14.48
2023-02-12T07:24:00.010Z,16.45
2023-02-12T07:26:27.793Z,16.75
2023-02-12T07:28:57.007Z,16.08
2023-02-12T07:31:24.836Z,16.17
2023-02-12T07:33:57.911Z,15.40
2023-02-12T07:36:28.241Z,13.95
2023-02-12T07:38:56.785Z,13.30
2023-02-12T07:41:26.666Z,9.07
2023-02-12T07:44:03.696Z,9.52
2023-02-12T07:46:34.116Z,8.20
2023-02-12T07:49:07.133Z,6.20
2023-02-12T07:51:37.285Z,3.97
2023-02-12T07:54:05.277Z,2.50
2023-02-12T07:56:35.494Z,2.00
2023-02-12T07:59:14.480Z,1.60
2023-02-12T08:01:48.032Z,1.75
2023-02-12T08:04:19.330Z,1.40
2023-02-12T08:06:50.545Z,1.08
2023-02-12T08:09:21.355Z,0.95
2023-02-12T08:11:49.199Z,0.70
2023-02-12T08:14:19.254Z,1.00
2023-02-12T08:16:48.801Z,1.35
2023-02-12T08:19:21.745Z,0.60
2023-02-12T08:21:52.956Z,1.08
2023-02-12T08:24:22.327Z,0.80
2023-02-12T08:26:50.917Z,1.50
2023-02-12T08:29:21.754Z,1.15
2023-02-12T08:31:59.010Z,0.98
2023-02-12T08:34:32.915Z,1.00
2023-02-12T08:37:06.649Z,0.95
2023-02-12T08:39:34.599Z,0.80
2023-02-12T08:42:04.908Z,0.90
2023-02-12T08:44:33.529Z,1.27
2023-02-12T08:47:03.274Z,1.10
2023-02-12T08:49:31.049Z,0.95
2023-02-12T08:51:59.969Z,0.85
2023-02-12T08:54:30.567Z,0.80
2023-02-12T08:57:00.429Z,0.93
2023-02-12T08:59:28.747Z,1.10
2023-02-12T09:02:00.880Z,0.90
2023-02-12T09:04:30.053Z,1.10
2023-02-12T09:06:58.247Z,1.10
2023-02-12T09:09:26.040Z,0.90
2023-02-12T09:11:54.814Z,1.23
2023-02-12T09:14:24.413Z,1.20
2023-02-12T09:16:54.248Z,0.85
2023-02-12T09:21:55.850Z,1.95
2023-02-12T09:24:25.777Z,0.82
2023-02-12T09:29:20.902Z,0.80
2023-02-12T09:31:48.864Z,1.17
2023-02-12T09:34:17.736Z,0.90
2023-02-12T09:36:45.544Z,0.70
2023-02-12T09:39:13.172Z,0.90
2023-02-12T09:42:10.333Z,0.80
2023-02-12T09:45:15.986Z,1.02
2023-02-12T09:48:14.628Z,0.80
2023-02-12T09:50:56.607Z,0.90
2023-02-12T09:53:29.451Z,1.00
2023-02-12T09:55:57.917Z,0.77
2023-02-12T09:58:36.990Z,0.77
2023-02-12T10:01:18.464Z,0.80
2023-02-12T10:03:49.225Z,23.15
2023-02-12T10:06:21.055Z,1.95
2023-02-12T10:09:19.442Z,1.00
2023-02-12T10:11:53.351Z,0.57
2023-02-12T10:14:54.781Z,0.93
2023-02-12T10:17:36.985Z,0.57
2023-02-12T10:20:26.810Z,0.70
2023-02-12T10:23:00.795Z,0.90
2023-02-12T10:26:01.070Z,0.93
2023-02-12T10:28:34.783Z,1.10
2023-02-12T10:31:24.541Z,0.90
2023-02-12T10:33:54.285Z,0.95
2023-02-12T10:36:43.865Z,2.28
2023-02-12T10:39:13.017Z,1.00
2023-02-12T10:41:47.711Z,0.93
2023-02-12T10:44:15.336Z,0.82
2023-02-12T10:46:44.312Z,0.80
2023-02-12T10:49:16.280Z,1.02
2023-02-12T10:52:04.846Z,0.90
2023-02-12T10:54:36.137Z,0.68
2023-02-12T10:57:25.443Z,0.80
2023-02-12T10:59:57.514Z,0.65
2023-02-12T11:02:33.603Z,0.80
2023-02-12T11:05:23.393Z,0.80
2023-02-12T11:07:52.074Z,0.55
2023-02-12T11:10:32.123Z,0.90
2023-02-12T11:13:02.145Z,0.65
2023-02-12T11:15:47.047Z,0.95
2023-02-12T11:18:42.020Z,1.35
2023-02-12T11:21:12.393Z,0.80
2023-02-12T11:23:42.924Z,1.00
2023-02-12T11:26:19.967Z,1.08
2023-02-12T11:29:19.015Z,0.85
2023-02-12T11:32:16.863Z,0.98
2023-02-12T11:35:15.686Z,0.85
2023-02-12T11:37:46.065Z,0.70
2023-02-12T11:40:24.123Z,1.23
2023-02-12T11:42:59.370Z,0.98
2023-02-12T11:45:33.719Z,0.80
2023-02-12T11:48:02.129Z,0.80
2023-02-12T11:50:33.447Z,1.17
2023-02-12T11:53:09.417Z,1.02
2023-02-12T11:55:40.991Z,1.00
2023-02-12T11:58:17.603Z,0.90
2023-02-12T12:00:53.883Z,1.00
2023-02-12T12:03:36.886Z,1.20
2023-02-12T12:06:31.308Z,1.38
2023-02-12T12:09:01.976Z,1.30
2023-02-12T12:11:45.669Z,1.30
2023-02-12T12:14:22.184Z,1.50
2023-02-12T12:17:19.243Z,1.33
2023-02-12T12:20:01.759Z,1.17
2023-02-12T12:22:32.718Z,1.08
2023-02-12T12:25:21.258Z,0.77
2023-02-12T12:28:08.451Z,0.95
2023-02-12T12:31:00.821Z,0.82
2023-02-12T12:33:48.189Z,0.98
2023-02-12T12:36:35.481Z,1.00
2023-02-12T12:39:29.133Z,1.02
2023-02-12T12:42:34.495Z,1.35
2023-02-12T12:45:41.697Z,0.98
2023-02-12T12:48:25.006Z,1.40
2023-02-12T12:51:14.773Z,1.20
2023-02-12T12:54:01.188Z,1.65
2023-02-12T12:57:16.920Z,1.23
2023-02-12T13:00:13.516Z,1.42
2023-02-12T13:03:17.076Z,1.00
2023-02-12T13:06:01.669Z,1.60
2023-02-12T13:09:06.936Z,1.17
2023-02-12T13:11:49.585Z,1.02
2023-02-12T13:14:46.314Z,1.33
2023-02-12T13:17:46.084Z,1.63
2023-02-12T13:20:31.949Z,1.20
2023-02-12T13:23:05.898Z,1.33
2023-02-12T13:25:45.629Z,1.20
2023-02-12T13:28:21.476Z,1.50
2023-02-12T13:30:52.154Z,1.30
2023-02-12T13:33:25.656Z,1.27
2023-02-12T13:35:59.394Z,1.55
2023-02-12T13:38:32.726Z,1.15
2023-02-12T13:41:05.981Z,1.30
2023-02-12T13:43:43.960Z,1.40
2023-02-12T13:46:32.561Z,1.67
2023-02-12T13:49:33.608Z,1.70
2023-02-12T13:52:40.269Z,1.25
2023-02-12T13:55:33.877Z,1.55
2023-02-12T13:58:34.737Z,1.67
2023-02-12T14:01:08.918Z,1.50
2023-02-12T14:03:38.103Z,1.40
2023-02-12T14:06:09.119Z,1.40
2023-02-12T14:08:44.139Z,1.40
2023-02-12T14:11:16.710Z,1.30
2023-02-12T14:13:54.151Z,1.10
2023-02-12T14:16:29.282Z,5.05
2023-02-12T14:19:34.158Z,1.20
2023-02-12T14:22:03.560Z,1.55
2023-02-12T14:27:27.045Z,2.03
2023-02-12T14:30:20.687Z,1.95
2023-02-12T14:32:55.354Z,2.50
2023-02-12T14:35:40.706Z,3.10
2023-02-12T14:38:20.297Z,1.80
2023-02-12T14:40:52.667Z,2.05
2023-02-12T14:43:57.375Z,1.83
2023-02-12T14:46:25.222Z,1.80
2023-02-12T14:49:05.040Z,2.17
2023-02-12T14:51:43.507Z,1.60
2023-02-12T14:54:21.694Z,1.95
2023-02-12T14:56:51.103Z,2.13
2023-02-12T14:59:24.640Z,1.90
2023-02-12T15:01:54.684Z,1.60
2023-02-12T15:04:33.624Z,1.80
2023-02-12T15:07:08.367Z,2.55
2023-02-12T15:09:44.936Z,1.83
2023-02-12T15:12:20.292Z,2.08
2023-02-12T15:14:56.790Z,1.60
2023-02-12T15:17:32.553Z,1.30
2023-02-12T15:20:08.287Z,1.48
2023-02-12T15:22:40.303Z,1.90
2023-02-12T15:25:30.347Z,1.73
2023-02-12T15:28:02.021Z,1.88
2023-02-12T15:30:34.248Z,1.52
2023-02-12T15:33:07.508Z,1.83
2023-02-12T15:35:39.853Z,1.48
2023-02-12T15:38:08.544Z,1.55
2023-02-12T15:40:36.818Z,1.27
2023-02-12T15:43:06.864Z,1.50
2023-02-12T15:48:09.118Z,1.47
2023-02-12T15:50:53.998Z,1.67
2023-02-12T15:53:24.631Z,1.55
2023-02-12T15:55:52.522Z,1.40
2023-02-12T15:58:22.698Z,1.48
2023-02-12T16:00:53.353Z,1.50
2023-02-12T16:03:24.210Z,1.80
2023-02-12T16:05:53.180Z,1.35
2023-02-12T16:08:24.865Z,1.80
2023-02-12T16:10:54.810Z,1.90
2023-02-12T16:13:47.190Z,1.52
2023-02-12T16:16:14.782Z,1.95
2023-02-12T16:18:43.543Z,1.63
2023-02-12T16:21:11.156Z,1.55
2023-02-12T16:23:39.051Z,1.60
2023-02-12T16:26:06.727Z,1.33
2023-02-12T16:28:34.764Z,1.60
2023-02-12T16:31:12.084Z,1.30
2023-02-12T16:33:39.659Z,1.85
2023-02-12T16:36:11.703Z,1.80
2023-02-12T16:38:45.416Z,1.50
2023-02-12T16:41:21.295Z,2.00
2023-02-12T16:44:17.730Z,1.60
2023-02-12T16:46:51.678Z,1.70
2023-02-12T16:49:23.568Z,1.50
2023-02-12T16:52:19.430Z,2.00
2023-02-12T16:54:47.137Z,2.38
2023-02-12T16:57:14.727Z,1.85
2023-02-12T16:59:44.584Z,2.25
2023-02-12T17:02:14.803Z,2.15
2023-02-12T17:04:43.125Z,1.83
2023-02-12T17:07:24.531Z,2.00
2023-02-12T17:09:52.409Z,2.22
2023-02-12T17:12:20.685Z,5.47
2023-02-12T17:14:48.630Z,1.88
2023-02-12T17:17:16.633Z,2.20
2023-02-12T17:19:44.232Z,1.50
2023-02-12T17:22:22.103Z,1.95
2023-02-12T17:24:51.688Z,1.42
2023-02-12T17:27:19.664Z,1.60
2023-02-12T17:29:50.424Z,1.67
2023-02-12T17:32:18.391Z,1.73
2023-02-12T17:34:49.456Z,1.50
2023-02-12T17:37:19.327Z,1.70
2023-02-12T17:39:47.020Z,1.45
2023-02-12T17:42:14.698Z,1.40
2023-02-12T17:44:42.389Z,1.58
2023-02-12T17:47:10.036Z,1.48
2023-02-12T17:49:39.953Z,1.80
2023-02-12T17:52:08.119Z,1.42
2023-02-12T17:54:35.745Z,1.60
2023-02-12T17:57:03.353Z,1.73
2023-02-12T17:59:31.519Z,1.95
2023-02-12T18:02:00.595Z,1.88
2023-02-12T18:04:28.332Z,1.58
2023-02-12T18:06:57.721Z,1.70
2023-02-12T18:09:25.499Z,1.90
2023-02-12T18:11:53.238Z,1.42
2023-02-12T18:14:21.208Z,1.80
2023-02-12T18:16:49.710Z,1.90
2023-02-12T18:19:17.650Z,1.42
2023-02-12T18:21:45.213Z,1.60
2023-02-12T18:24:12.738Z,1.48
2023-02-12T18:26:40.466Z,1.40
2023-02-12T18:29:08.274Z,1.77
2023-02-12T18:31:36.828Z,2.00
2023-02-12T18:34:06.054Z,1.67
2023-02-12T18:36:33.861Z,1.65
2023-02-12T18:39:01.968Z,1.75
2023-02-12T18:41:34.363Z,1.92
2023-02-12T18:44:02.463Z,1.65
2023-02-12T18:46:32.632Z,1.70
2023-02-12T18:49:00.955Z,1.63
2023-02-12T18:51:32.702Z,1.77
2023-02-12T18:54:05.853Z,1.83
2023-02-12T18:56:41.092Z,1.48
2023-02-12T18:59:15.492Z,1.90
2023-02-12T19:02:21.475Z,1.85
2023-02-12T19:05:09.472Z,1.65
2023-02-12T19:07:38.588Z,1.55
2023-02-12T19:10:08.626Z,1.80
2023-02-12T19:12:39.457Z,2.30
2023-02-12T19:15:08.848Z,1.73
2023-02-12T19:17:38.766Z,2.15
2023-02-12T19:20:10.207Z,1.67
2023-02-12T19:22:39.860Z,2.15
2023-02-12T19:25:08.255Z,2.23
2023-02-12T19:27:36.409Z,1.70
2023-02-12T19:30:05.255Z,2.20
2023-02-12T19:32:34.162Z,2.22
2023-02-12T19:35:02.019Z,2.55
2023-02-12T19:37:32.081Z,3.92
2023-02-12T19:39:59.825Z,1.58
2023-02-12T19:42:27.343Z,1.70
2023-02-12T19:44:55.109Z,2.10
2023-02-12T19:47:22.731Z,1.75
2023-02-12T19:49:50.664Z,1.90
2023-02-12T19:52:18.204Z,1.70
2023-02-12T19:54:46.291Z,2.15
2023-02-12T19:57:14.124Z,2.33
2023-02-12T19:59:42.142Z,1.80
2023-02-12T20:02:10.337Z,1.50
2023-02-12T20:04:38.757Z,1.48
2023-02-12T20:07:06.355Z,1.70
2023-02-12T20:09:35.435Z,2.03
2023-02-12T20:12:03.589Z,1.80
2023-02-12T20:14:32.084Z,5.57
2023-02-12T20:16:59.692Z,8.30
2023-02-12T20:19:32.358Z,1.67
2023-02-12T20:24:32.520Z,1.40
2023-02-12T20:27:02.293Z,1.90
2023-02-12T20:29:30.215Z,1.25
2023-02-12T20:32:00.679Z,2.05
2023-02-12T20:34:29.559Z,1.25
2023-02-12T20:36:58.740Z,0.98
2023-02-12T20:39:26.305Z,1.42
2023-02-12T20:41:54.341Z,1.08
2023-02-12T20:44:22.758Z,1.05
2023-02-12T20:46:56.535Z,1.33
2023-02-12T20:49:26.591Z,1.40
2023-02-12T20:51:54.519Z,0.90
2023-02-12T20:54:22.255Z,1.20
2023-02-12T20:56:50.723Z,1.17
2023-02-12T20:59:19.032Z,0.80
2023-02-12T21:01:47.031Z,1.00
2023-02-12T21:04:18.259Z,0.70
2023-02-12T21:06:47.445Z,1.75
2023-02-12T21:09:15.291Z,1.17
2023-02-12T21:11:47.587Z,1.08
2023-02-12T21:14:24.501Z,0.90
2023-02-12T21:16:54.690Z,0.75
2023-02-12T21:19:22.968Z,1.38
2023-02-12T21:21:51.107Z,7.35
2023-02-12T21:24:26.197Z,1.10
2023-02-12T21:26:55.231Z,0.85
2023-02-12T21:29:27.533Z,0.98
2023-02-12T21:31:55.775Z,0.60
2023-02-12T21:34:23.883Z,0.85
2023-02-12T21:36:54.682Z,1.00
2023-02-12T21:39:28.360Z,0.80
2023-02-12T21:42:03.065Z,0.88
2023-02-12T21:44:35.451Z,1.00
2023-02-12T21:47:03.859Z,1.08
2023-02-12T21:49:31.502Z,1.02
2023-02-12T21:52:06.014Z,1.10
2023-02-12T21:54:34.433Z,1.17
2023-02-12T21:57:02.225Z,1.05
2023-02-12T21:59:32.377Z,1.10
2023-02-12T22:04:28.802Z,1.05
2023-02-12T22:06:58.062Z,1.10
2023-02-12T22:09:29.079Z,1.45
2023-02-12T22:11:57.353Z,11.38
2023-02-12T22:14:27.959Z,1.10
2023-02-12T22:16:55.752Z,0.90
2023-02-12T22:19:23.673Z,1.13
2023-02-12T22:21:52.875Z,1.33
2023-02-12T22:24:21.494Z,1.30
2023-02-12T22:26:49.717Z,1.50
2023-02-12T22:29:17.620Z,1.10
2023-02-12T22:31:46.884Z,1.33
2023-02-12T22:34:17.724Z,1.00
2023-02-12T22:36:46.418Z,1.67
2023-02-12T22:39:15.120Z,1.53
2023-02-12T22:41:43.262Z,1.77
2023-02-12T22:44:12.864Z,27.45
2023-02-12T22:46:43.190Z,1.67
2023-02-12T22:51:39.799Z,1.80
2023-02-12T22:56:36.593Z,1.63
2023-02-12T22:59:04.163Z,1.52
2023-02-12T23:01:31.840Z,1.50
2023-02-12T23:03:59.554Z,1.40
2023-02-12T23:06:29.497Z,1.63
2023-02-12T23:09:03.512Z,1.30
2023-02-12T23:11:33.180Z,1.30
2023-02-12T23:14:01.182Z,1.70
2023-02-12T23:16:29.687Z,1.52
2023-02-12T23:18:59.078Z,1.27
2023-02-12T23:21:28.948Z,1.50
2023-02-12T23:23:59.171Z,1.60
2023-02-12T23:26:29.465Z,1.45
2023-02-12T23:28:58.612Z,1.40
2023-02-12T23:31:26.290Z,1.73
2023-02-12T23:33:54.001Z,1.40
2023-02-12T23:36:21.666Z,1.58
2023-02-12T23:38:49.372Z,1.40
2023-02-12T23:41:17.030Z,1.30
2023-02-12T23:43:44.634Z,1.80
2023-02-12T23:46:12.486Z,1.80
2023-02-12T23:48:41.279Z,1.33
2023-02-12T23:51:09.045Z,1.87
2023-02-12T23:53:37.932Z,1.88
2023-02-12T23:56:06.082Z,1.85
2023-02-12T23:58:33.909Z,1.95
